Time;durP1;ratioP1;P1;durP2;ratioP2;P2;SDS_P1;SDS_P2;PMS_P1;PMS_P2;Temp;Humidity;BMP_temperature;BMP_pressure;BME280_temperature;BME280_humidity;BME280_pressure;Samples;Min_cycle;Max_cycle;Signal;HPM_P1;HPM_P2
2023/06/08 00:02:00;;;;;;;3.90;3.60;;;;;;;;;;5086320;28;20709;-62
2023/06/08 00:04:30;;;;;;;3.25;3.05;;;;;;;;;;5086050;28;20265;-63
2023/06/08 00:06:57;;;;;;;4.07;3.63;;;;;;;;;;5085636;28;20213;-61
2023/06/08 00:09:25;;;;;;;3.53;3.22;;;;;;;;;;5066882;28;20231;-62
2023/06/08 00:11:52;;;;;;;3.53;3.33;;;;;;;;;;5097609;28;20206;-62
2023/06/08 00:14:19;;;;;;;3.80;3.60;;;;;;;;;;5086272;28;20240;-62
2023/06/08 00:16:48;;;;;;;3.33;3.20;;;;;;;;;;5086640;28;20206;-62
2023/06/08 00:19:16;;;;;;;3.63;3.33;;;;;;;;;;5079043;28;20211;-61
2023/06/08 00:21:44;;;;;;;3.80;3.58;;;;;;;;;;5080605;28;20237;-61
2023/06/08 00:24:11;;;;;;;3.60;3.38;;;;;;;;;;5081311;28;20202;-61
2023/06/08 00:26:38;;;;;;;3.53;3.33;;;;;;;;;;5081411;28;20313;-62
2023/06/08 00:29:05;;;;;;;3.60;3.30;;;;;;;;;;5077479;28;20397;-62
2023/06/08 00:31:32;;;;;;;3.40;3.10;;;;;;;;;;5070942;28;20210;-61
2023/06/08 00:33:59;;;;;;;3.80;3.60;;;;;;;;;;5070489;28;20218;-62
2023/06/08 00:36:28;;;;;;;3.45;3.25;;;;;;;;;;5072528;28;20202;-62
2023/06/08 00:38:55;;;;;;;3.47;3.28;;;;;;;;;;5090071;28;20660;-61
2023/06/08 00:41:22;;;;;;;4.28;3.90;;;;;;;;;;5089077;28;20275;-62
2023/06/08 00:43:49;;;;;;;4.75;4.25;;;;;;;;;;5080609;28;20249;-62
2023/06/08 00:46:18;;;;;;;3.38;3.17;;;;;;;;;;5090210;28;20206;-61
2023/06/08 00:48:45;;;;;;;6.38;4.05;;;;;;;;;;5088244;28;20217;-63
2023/06/08 00:51:13;;;;;;;3.60;3.40;;;;;;;;;;5089434;28;20210;-62
2023/06/08 00:53:42;;;;;;;3.90;3.60;;;;;;;;;;5089067;28;20213;-62
2023/06/08 00:56:11;;;;;;;4.20;3.80;;;;;;;;;;5090238;28;20759;-62
2023/06/08 00:58:38;;;;;;;3.53;3.40;;;;;;;;;;5086098;28;21158;-62
2023/06/08 01:01:11;;;;;;;3.63;3.35;;;;;;;;;;5085185;28;20206;-62
2023/06/08 01:03:38;;;;;;;3.92;3.72;;;;;;;;;;5086941;28;20214;-63
2023/06/08 01:06:08;;;;;;;4.40;3.40;;;;;;;;;;5086235;28;20206;-63
2023/06/08 01:08:42;;;;;;;3.47;3.38;;;;;;;;;;5087040;28;20210;-62
2023/06/08 01:11:15;;;;;;;3.90;3.70;;;;;;;;;;5085152;28;20214;-62
2023/06/08 01:13:45;;;;;;;3.60;3.33;;;;;;;;;;5069805;28;20207;-62
2023/06/08 01:16:14;;;;;;;3.45;3.25;;;;;;;;;;5079362;28;20238;-62
2023/06/08 01:18:41;;;;;;;3.75;3.50;;;;;;;;;;5088748;28;20218;-62
2023/06/08 01:21:16;;;;;;;4.07;3.78;;;;;;;;;;5082530;28;20230;-62
2023/06/08 01:23:54;;;;;;;3.80;3.50;;;;;;;;;;5089044;28;20687;-62
2023/06/08 01:26:21;;;;;;;4.25;3.95;;;;;;;;;;5089037;28;20210;-62
2023/06/08 01:28:49;;;;;;;4.70;4.40;;;;;;;;;;5089454;28;20585;-62
2023/06/08 01:31:16;;;;;;;3.47;3.28;;;;;;;;;;5084863;28;20210;-62
2023/06/08 01:33:43;;;;;;;3.63;3.42;;;;;;;;;;5089073;28;20214;-62
2023/06/08 01:36:14;;;;;;;3.97;3.67;;;;;;;;;;5085369;28;20770;-62
2023/06/08 01:38:46;;;;;;;4.70;3.65;;;;;;;;;;5088767;28;20419;-62
2023/06/08 01:41:18;;;;;;;3.95;3.65;;;;;;;;;;5085134;28;20250;-62
2023/06/08 01:43:46;;;;;;;3.88;3.58;;;;;;;;;;5069131;28;20238;-62
2023/06/08 01:46:14;;;;;;;3.88;3.53;;;;;;;;;;5078227;28;20210;-61
2023/06/08 01:48:42;;;;;;;3.70;3.50;;;;;;;;;;5088489;28;20507;-61
2023/06/08 01:51:10;;;;;;;4.00;3.80;;;;;;;;;;5085034;28;20198;-61
2023/06/08 01:53:37;;;;;;;3.80;3.60;;;;;;;;;;5068964;28;20215;-61
2023/06/08 01:56:05;;;;;;;3.95;3.65;;;;;;;;;;5076909;28;20743;-61
2023/06/08 01:58:33;;;;;;;3.67;3.47;;;;;;;;;;5088928;28;20297;-61
2023/06/08 02:01:00;;;;;;;3.78;3.58;;;;;;;;;;5087795;28;20211;-61
2023/06/08 02:03:27;;;;;;;7.32;3.60;;;;;;;;;;5087754;28;20565;-61
2023/06/08 02:05:54;;;;;;;3.55;3.22;;;;;;;;;;5087387;28;20202;-61
2023/06/08 02:08:21;;;;;;;5.05;3.42;;;;;;;;;;5088098;28;20217;-63
2023/06/08 02:10:48;;;;;;;3.45;3.25;;;;;;;;;;5098784;28;20216;-63
2023/06/08 02:13:16;;;;;;;3.53;3.33;;;;;;;;;;5083467;28;20210;-62
2023/06/08 02:15:44;;;;;;;3.40;3.30;;;;;;;;;;5088660;28;20345;-62
2023/06/08 02:18:14;;;;;;;3.10;2.90;;;;;;;;;;5088733;28;20267;-62
2023/06/08 02:20:41;;;;;;;3.55;3.35;;;;;;;;;;5089169;28;20333;-62
2023/06/08 02:23:08;;;;;;;3.35;3.10;;;;;;;;;;5082113;28;20221;-62
2023/06/08 02:25:35;;;;;;;3.42;3.22;;;;;;;;;;5088142;28;20256;-63
2023/06/08 02:28:02;;;;;;;3.50;3.40;;;;;;;;;;5088290;28;20293;-63
2023/06/08 02:30:30;;;;;;;3.47;3.22;;;;;;;;;;5088002;28;20612;-62
2023/06/08 02:32:59;;;;;;;3.45;3.25;;;;;;;;;;5085244;28;20347;-62
2023/06/08 02:35:26;;;;;;;4.03;3.72;;;;;;;;;;5088400;28;20240;-62
2023/06/08 02:37:53;;;;;;;3.67;3.45;;;;;;;;;;5088054;28;20259;-62
2023/06/08 02:40:20;;;;;;;3.42;3.30;;;;;;;;;;5095960;28;20218;-62
2023/06/08 02:42:47;;;;;;;4.30;3.78;;;;;;;;;;5089596;28;20231;-62
2023/06/08 02:45:14;;;;;;;3.45;3.33;;;;;;;;;;5088301;28;20264;-62
2023/06/08 02:47:41;;;;;;;4.03;3.65;;;;;;;;;;5086983;28;20313;-62
2023/06/08 02:50:10;;;;;;;3.47;3.28;;;;;;;;;;5087675;28;20218;-63
2023/06/08 02:52:37;;;;;;;3.83;3.58;;;;;;;;;;5086799;28;20214;-62
2023/06/08 02:55:05;;;;;;;4.07;3.60;;;;;;;;;;5073861;28;20612;-62
2023/06/08 02:57:33;;;;;;;3.53;3.33;;;;;;;;;;5086907;28;20715;-63
2023/06/08 03:00:01;;;;;;;3.85;3.60;;;;;;;;;;5087463;28;20762;-62
2023/06/08 03:02:28;;;;;;;3.35;3.17;;;;;;;;;;5086404;28;20210;-62
2023/06/08 03:04:58;;;;;;;3.35;3.15;;;;;;;;;;5083216;28;20318;-63
2023/06/08 03:07:27;;;;;;;3.80;3.35;;;;;;;;;;5086311;28;20206;-62
2023/06/08 03:09:54;;;;;;;4.28;3.97;;;;;;;;;;5087006;28;20301;-63
2023/06/08 03:12:21;;;;;;;3.55;3.35;;;;;;;;;;5087670;28;20279;-62
2023/06/08 03:14:48;;;;;;;3.47;3.28;;;;;;;;;;5080228;28;20229;-63
2023/06/08 03:17:17;;;;;;;3.50;3.30;;;;;;;;;;5086684;28;20202;-62
2023/06/08 03:19:44;;;;;;;4.10;3.83;;;;;;;;;;5087121;28;20221;-62
2023/06/08 03:22:11;;;;;;;3.70;3.50;;;;;;;;;;5085984;28;20244;-62
2023/06/08 03:24:40;;;;;;;4.25;3.88;;;;;;;;;;5085830;28;20206;-62
2023/06/08 03:27:07;;;;;;;4.00;3.70;;;;;;;;;;5086702;28;20678;-62
2023/06/08 03:29:35;;;;;;;5.47;3.58;;;;;;;;;;5087190;28;20213;-62
2023/06/08 03:32:02;;;;;;;3.83;3.60;;;;;;;;;;5067389;28;20306;-63
2023/06/08 03:34:29;;;;;;;5.20;3.80;;;;;;;;;;5073328;28;20206;-62
2023/06/08 03:36:56;;;;;;;3.65;3.42;;;;;;;;;;5086298;28;20710;-62
2023/06/08 03:39:24;;;;;;;3.67;3.45;;;;;;;;;;5087129;28;20241;-62
2023/06/08 03:41:52;;;;;;;4.07;3.88;;;;;;;;;;5086136;28;20229;-62
2023/06/08 03:44:20;;;;;;;3.85;3.60;;;;;;;;;;5074892;28;20207;-63
2023/06/08 03:46:47;;;;;;;3.67;3.38;;;;;;;;;;5085121;28;20210;-62
2023/06/08 03:49:14;;;;;;;4.32;3.17;;;;;;;;;;5074441;28;20202;-63
2023/06/08 03:51:41;;;;;;;3.70;3.50;;;;;;;;;;5085904;28;20214;-62
2023/06/08 03:54:09;;;;;;;4.35;3.95;;;;;;;;;;5085027;28;20879;-63
2023/06/08 03:56:36;;;;;;;3.88;3.67;;;;;;;;;;5085671;28;20318;-62
2023/06/08 03:59:04;;;;;;;3.55;3.25;;;;;;;;;;5091021;28;20217;-62
2023/06/08 04:01:31;;;;;;;4.00;3.72;;;;;;;;;;5091789;28;20308;-62
2023/06/08 04:03:59;;;;;;;3.55;3.40;;;;;;;;;;5091041;28;20264;-62
2023/06/08 04:06:31;;;;;;;5.10;3.92;;;;;;;;;;5073126;28;20684;-62
2023/06/08 04:08:58;;;;;;;3.67;3.47;;;;;;;;;;5084087;28;20199;-62
2023/06/08 04:11:25;;;;;;;3.70;3.50;;;;;;;;;;5102703;28;20221;-62
2023/06/08 04:13:52;;;;;;;3.72;3.53;;;;;;;;;;5091136;28;20236;-63
2023/06/08 04:16:21;;;;;;;3.85;3.65;;;;;;;;;;5082181;28;20226;-63
2023/06/08 04:18:48;;;;;;;3.53;3.33;;;;;;;;;;5088957;28;20217;-61
2023/06/08 04:21:15;;;;;;;4.05;3.53;;;;;;;;;;5090719;28;20226;-61
2023/06/08 04:23:44;;;;;;;4.53;4.20;;;;;;;;;;5081111;28;20206;-61
2023/06/08 04:26:12;;;;;;;3.88;3.45;;;;;;;;;;5078484;28;20205;-62
2023/06/08 04:28:39;;;;;;;3.60;3.42;;;;;;;;;;5076736;28;20211;-62
2023/06/08 04:31:06;;;;;;;4.03;3.55;;;;;;;;;;5070688;28;20257;-61
2023/06/08 04:33:35;;;;;;;3.88;3.67;;;;;;;;;;5086088;28;20684;-60
2023/06/08 04:36:02;;;;;;;3.92;3.72;;;;;;;;;;5089948;28;20237;-61
2023/06/08 04:38:30;;;;;;;4.20;3.80;;;;;;;;;;5089450;28;20221;-61
2023/06/08 04:40:57;;;;;;;3.92;3.72;;;;;;;;;;5101336;28;20659;-61
2023/06/08 04:43:25;;;;;;;3.47;3.28;;;;;;;;;;5089368;28;20242;-61
2023/06/08 04:45:55;;;;;;;4.40;4.07;;;;;;;;;;5071268;28;20206;-61
2023/06/08 04:48:25;;;;;;;5.57;3.65;;;;;;;;;;5083521;28;20213;-61
2023/06/08 04:50:54;;;;;;;4.38;3.45;;;;;;;;;;5090459;28;20225;-61
2023/06/08 04:53:21;;;;;;;3.60;3.40;;;;;;;;;;5089026;28;20215;-61
2023/06/08 04:55:49;;;;;;;3.95;3.65;;;;;;;;;;5090507;28;20299;-61
2023/06/08 04:58:16;;;;;;;6.10;3.50;;;;;;;;;;5078842;28;20211;-62
2023/06/08 05:00:43;;;;;;;3.25;3.15;;;;;;;;;;5070199;28;20270;-61
2023/06/08 05:03:10;;;;;;;3.83;3.50;;;;;;;;;;5080468;28;20203;-62
2023/06/08 05:05:37;;;;;;;3.70;3.45;;;;;;;;;;5090415;28;20210;-62
2023/06/08 05:08:06;;;;;;;4.18;3.88;;;;;;;;;;5087270;28;20209;-62
2023/06/08 05:10:33;;;;;;;4.05;3.85;;;;;;;;;;5096932;28;20381;-62
2023/06/08 05:13:01;;;;;;;4.90;3.58;;;;;;;;;;5090485;28;20207;-61
2023/06/08 05:15:28;;;;;;;3.80;3.60;;;;;;;;;;5069593;28;20207;-61
2023/06/08 05:17:55;;;;;;;3.80;3.53;;;;;;;;;;5073711;28;20613;-62
2023/06/08 05:20:24;;;;;;;6.85;3.90;;;;;;;;;;5089159;28;20236;-61
2023/06/08 05:22:51;;;;;;;3.40;3.20;;;;;;;;;;5088242;28;20297;-62
2023/06/08 05:25:20;;;;;;;3.75;3.47;;;;;;;;;;5088095;28;20210;-62
2023/06/08 05:27:47;;;;;;;4.00;3.80;;;;;;;;;;5087632;28;20282;-63
2023/06/08 05:30:14;;;;;;;3.88;3.58;;;;;;;;;;5089744;28;20874;-62
2023/06/08 05:32:41;;;;;;;3.83;3.63;;;;;;;;;;5088814;28;20214;-62
2023/06/08 05:35:08;;;;;;;3.70;3.50;;;;;;;;;;5089530;28;20218;-62
2023/06/08 05:37:35;;;;;;;4.40;4.10;;;;;;;;;;5084542;28;20234;-63
2023/06/08 05:40:03;;;;;;;4.20;3.88;;;;;;;;;;5074003;28;20214;-63
2023/06/08 05:42:31;;;;;;;4.03;3.72;;;;;;;;;;5089215;28;20352;-63
2023/06/08 05:44:59;;;;;;;3.70;3.50;;;;;;;;;;5089515;28;20217;-62
2023/06/08 05:47:26;;;;;;;4.18;3.85;;;;;;;;;;5087512;28;20732;-63
2023/06/08 05:49:53;;;;;;;3.88;3.67;;;;;;;;;;5088642;28;20213;-62
2023/06/08 05:52:20;;;;;;;3.83;3.63;;;;;;;;;;5089341;28;20218;-61
2023/06/08 05:54:47;;;;;;;3.45;3.30;;;;;;;;;;5089257;28;20218;-61
2023/06/08 05:57:14;;;;;;;3.83;3.63;;;;;;;;;;5089192;28;20237;-62
2023/06/08 05:59:42;;;;;;;4.10;3.80;;;;;;;;;;5072422;28;20237;-61
2023/06/08 06:02:09;;;;;;;3.55;3.33;;;;;;;;;;5068692;28;20217;-62
2023/06/08 06:04:36;;;;;;;4.18;3.83;;;;;;;;;;5068533;28;20214;-65
2023/06/08 06:07:04;;;;;;;3.78;3.65;;;;;;;;;;5068778;28;20211;-62
2023/06/08 06:09:31;;;;;;;4.78;4.38;;;;;;;;;;5084521;28;20229;-62
2023/06/08 06:11:58;;;;;;;5.72;3.70;;;;;;;;;;5100004;28;20214;-63
2023/06/08 06:14:25;;;;;;;4.50;3.95;;;;;;;;;;5080200;28;20209;-63
2023/06/08 06:16:53;;;;;;;3.90;3.70;;;;;;;;;;5072348;28;20230;-63
2023/06/08 06:19:20;;;;;;;4.90;4.40;;;;;;;;;;5079111;28;20880;-62
2023/06/08 06:21:47;;;;;;;3.80;3.53;;;;;;;;;;5083174;28;20234;-63
2023/06/08 06:24:14;;;;;;;4.70;4.40;;;;;;;;;;5069094;28;20677;-62
2023/06/08 06:26:41;;;;;;;4.25;3.95;;;;;;;;;;5074650;28;20198;-62
2023/06/08 06:29:08;;;;;;;4.07;3.78;;;;;;;;;;5086522;28;20210;-63
2023/06/08 06:31:35;;;;;;;3.92;3.72;;;;;;;;;;5088690;28;20659;-62
2023/06/08 06:34:04;;;;;;;3.90;3.70;;;;;;;;;;5088466;28;20207;-63
2023/06/08 06:36:31;;;;;;;4.50;4.20;;;;;;;;;;5088511;28;20238;-63
2023/06/08 06:38:58;;;;;;;3.63;3.42;;;;;;;;;;5087338;28;20214;-63
2023/06/08 06:41:26;;;;;;;6.00;3.85;;;;;;;;;;5099789;28;20214;-62
2023/06/08 06:43:53;;;;;;;4.30;3.72;;;;;;;;;;5087461;28;20246;-62
2023/06/08 06:46:21;;;;;;;3.80;3.53;;;;;;;;;;5075208;28;20209;-61
2023/06/08 06:48:48;;;;;;;4.47;4.13;;;;;;;;;;5077066;28;20378;-63
2023/06/08 06:51:17;;;;;;;3.70;3.50;;;;;;;;;;5067333;28;20954;-61
2023/06/08 06:53:44;;;;;;;3.72;3.42;;;;;;;;;;5077520;28;20203;-63
2023/06/08 06:56:11;;;;;;;3.85;3.50;;;;;;;;;;5076844;28;20914;-62
2023/06/08 06:58:38;;;;;;;3.83;3.55;;;;;;;;;;5084596;28;20232;-63
2023/06/08 07:01:05;;;;;;;3.55;3.35;;;;;;;;;;5079266;28;20203;-63
2023/06/08 07:03:33;;;;;;;4.00;3.60;;;;;;;;;;5066971;28;20673;-63
2023/06/08 07:06:00;;;;;;;3.55;3.40;;;;;;;;;;5067202;28;20276;-63
2023/06/08 07:08:28;;;;;;;3.35;3.15;;;;;;;;;;5072571;28;20202;-63
2023/06/08 07:10:57;;;;;;;3.60;3.40;;;;;;;;;;5086174;28;20210;-62
2023/06/08 07:13:24;;;;;;;3.58;3.38;;;;;;;;;;5074903;28;20229;-63
2023/06/08 07:15:51;;;;;;;4.20;3.90;;;;;;;;;;5087329;28;20381;-63
2023/06/08 07:18:18;;;;;;;3.00;2.80;;;;;;;;;;5083857;28;20229;-63
2023/06/08 07:20:45;;;;;;;3.83;3.63;;;;;;;;;;5083563;28;20226;-63
2023/06/08 07:23:12;;;;;;;3.75;3.55;;;;;;;;;;5076667;28;20410;-63
2023/06/08 07:25:40;;;;;;;3.28;3.17;;;;;;;;;;5068414;28;20567;-62
2023/06/08 07:28:08;;;;;;;3.47;3.28;;;;;;;;;;5075758;28;20575;-62
2023/06/08 07:30:35;;;;;;;3.25;3.15;;;;;;;;;;5085854;28;20213;-63
2023/06/08 07:33:03;;;;;;;3.47;3.28;;;;;;;;;;5086117;28;20640;-63
2023/06/08 07:35:31;;;;;;;3.50;3.30;;;;;;;;;;5074854;28;20695;-63
2023/06/08 07:37:58;;;;;;;3.28;3.17;;;;;;;;;;5071223;28;20607;-64
2023/06/08 07:40:25;;;;;;;3.50;3.33;;;;;;;;;;5093502;28;20214;-63
2023/06/08 07:42:53;;;;;;;4.68;3.63;;;;;;;;;;5087057;28;20245;-63
2023/06/08 07:45:20;;;;;;;3.67;3.38;;;;;;;;;;5073736;28;20218;-64
2023/06/08 07:47:47;;;;;;;3.40;3.13;;;;;;;;;;5091404;28;20206;-63
2023/06/08 07:50:14;;;;;;;4.10;3.60;;;;;;;;;;5090466;28;20213;-63
2023/06/08 07:52:41;;;;;;;3.40;3.25;;;;;;;;;;5078097;28;20781;-63
2023/06/08 07:55:09;;;;;;;3.47;3.38;;;;;;;;;;5088502;28;20206;-63
2023/06/08 07:57:36;;;;;;;3.42;3.13;;;;;;;;;;5090870;28;20236;-63
2023/06/08 08:00:05;;;;;;;3.72;3.53;;;;;;;;;;5090197;28;20218;-63
2023/06/08 08:02:32;;;;;;;4.07;3.88;;;;;;;;;;5089135;28;20303;-63
2023/06/08 08:05:00;;;;;;;3.83;3.65;;;;;;;;;;5090951;28;20206;-63
2023/06/08 08:07:27;;;;;;;3.42;3.22;;;;;;;;;;5091066;28;20217;-64
2023/06/08 08:09:54;;;;;;;4.18;3.78;;;;;;;;;;5084590;28;20639;-63
2023/06/08 08:12:21;;;;;;;4.22;3.92;;;;;;;;;;5088188;28;20213;-63
2023/06/08 08:14:48;;;;;;;3.63;3.42;;;;;;;;;;5090420;28;20293;-63
2023/06/08 08:17:16;;;;;;;6.15;4.28;;;;;;;;;;5109159;28;20283;-64
2023/06/08 08:19:43;;;;;;;3.58;3.47;;;;;;;;;;5104588;28;20215;-63
2023/06/08 08:22:10;;;;;;;4.53;4.22;;;;;;;;;;5089986;28;20226;-63
2023/06/08 08:24:37;;;;;;;4.38;3.97;;;;;;;;;;5086446;28;20213;-64
2023/06/08 08:27:05;;;;;;;3.95;3.75;;;;;;;;;;5081068;28;20625;-63
2023/06/08 08:29:32;;;;;;;4.50;4.20;;;;;;;;;;5072426;28;20294;-63
2023/06/08 08:31:59;;;;;;;3.60;3.45;;;;;;;;;;5090285;28;20221;-64
2023/06/08 08:34:27;;;;;;;4.05;3.85;;;;;;;;;;5090366;28;20264;-63
2023/06/08 08:36:55;;;;;;;4.35;4.05;;;;;;;;;;5089275;28;20222;-64
2023/06/08 08:39:22;;;;;;;4.78;4.47;;;;;;;;;;5089722;28;20849;-64
2023/06/08 08:41:53;;;;;;;4.70;4.40;;;;;;;;;;5082514;28;20207;-63
2023/06/08 08:44:21;;;;;;;4.50;4.20;;;;;;;;;;5070192;28;20682;-64
2023/06/08 08:46:50;;;;;;;4.15;3.92;;;;;;;;;;5087245;28;20218;-63
2023/06/08 08:49:18;;;;;;;4.45;4.05;;;;;;;;;;5089253;28;20272;-63
2023/06/08 08:51:49;;;;;;;5.20;4.90;;;;;;;;;;5089358;28;20198;-64
2023/06/08 08:54:17;;;;;;;4.57;4.28;;;;;;;;;;5089974;28;20267;-64
2023/06/08 08:56:44;;;;;;;4.50;4.20;;;;;;;;;;5089855;28;20214;-64
2023/06/08 08:59:12;;;;;;;4.80;4.40;;;;;;;;;;5084764;28;20818;-64
2023/06/08 09:01:41;;;;;;;4.47;4.25;;;;;;;;;;5085988;28;20210;-65
2023/06/08 09:04:08;;;;;;;4.80;4.40;;;;;;;;;;5086510;28;20293;-63
2023/06/08 09:06:35;;;;;;;4.25;4.05;;;;;;;;;;5089112;28;20206;-63
2023/06/08 09:09:04;;;;;;;4.78;4.47;;;;;;;;;;5086083;28;20198;-63
2023/06/08 09:11:55;;;;;;;4.75;4.45;;;;;;;;;;5087843;28;20234;-63
2023/06/08 09:14:24;;;;;;;4.40;4.20;;;;;;;;;;5090144;28;20206;-64
2023/06/08 09:16:52;;;;;;;4.55;4.30;;;;;;;;;;5077677;28;20235;-64
2023/06/08 09:19:19;;;;;;;3.70;3.35;;;;;;;;;;5070123;28;20217;-64
2023/06/08 09:21:47;;;;;;;4.55;4.25;;;;;;;;;;5079732;28;20245;-64
2023/06/08 09:24:14;;;;;;;4.43;4.15;;;;;;;;;;5089881;28;20212;-64
2023/06/08 09:26:45;;;;;;;3.78;3.38;;;;;;;;;;5088484;28;20202;-63
2023/06/08 09:29:12;;;;;;;4.65;4.35;;;;;;;;;;5089926;28;20305;-64
2023/06/08 09:31:50;;;;;;;3.90;3.70;;;;;;;;;;5077592;28;20625;-63
2023/06/08 09:34:17;;;;;;;4.57;4.18;;;;;;;;;;5086213;28;20202;-64
2023/06/08 09:36:49;;;;;;;3.70;3.50;;;;;;;;;;5080565;28;20211;-63
2023/06/08 09:39:16;;;;;;;4.10;3.90;;;;;;;;;;5074263;28;20206;-64
2023/06/08 09:41:56;;;;;;;4.60;4.28;;;;;;;;;;5087608;28;20218;-63
2023/06/08 09:44:23;;;;;;;4.30;4.10;;;;;;;;;;5089764;28;20210;-64
2023/06/08 09:46:51;;;;;;;4.68;4.38;;;;;;;;;;5089524;28;20551;-64
2023/06/08 09:49:18;;;;;;;4.05;3.75;;;;;;;;;;5088589;28;20222;-64
2023/06/08 09:51:49;;;;;;;8.80;4.15;;;;;;;;;;5084190;28;20303;-64
2023/06/08 09:54:17;;;;;;;3.67;3.58;;;;;;;;;;5081574;28;20217;-64
2023/06/08 09:56:47;;;;;;;4.32;3.90;;;;;;;;;;5081283;28;20665;-64
2023/06/08 09:59:15;;;;;;;5.20;4.80;;;;;;;;;;5079692;28;20250;-64
2023/06/08 10:01:45;;;;;;;5.00;4.70;;;;;;;;;;5082823;28;20568;-63
2023/06/08 10:04:20;;;;;;;4.35;4.03;;;;;;;;;;5069802;28;20294;-64
2023/06/08 10:06:48;;;;;;;4.10;3.90;;;;;;;;;;5069021;28;20206;-64
2023/06/08 10:09:16;;;;;;;4.10;3.90;;;;;;;;;;5068859;28;20221;-64
2023/06/08 10:11:43;;;;;;;4.05;3.80;;;;;;;;;;5070126;28;20293;-66
2023/06/08 10:14:12;;;;;;;4.05;3.85;;;;;;;;;;5075499;28;20210;-66
2023/06/08 10:16:40;;;;;;;3.92;3.67;;;;;;;;;;5081728;28;20210;-66
2023/06/08 10:19:08;;;;;;;3.97;3.78;;;;;;;;;;5088661;28;20317;-66
2023/06/08 10:21:36;;;;;;;4.15;3.95;;;;;;;;;;5087754;28;20255;-66
2023/06/08 10:24:04;;;;;;;4.35;3.95;;;;;;;;;;5086685;28;20234;-66
2023/06/08 10:26:31;;;;;;;4.07;3.88;;;;;;;;;;5088220;28;20250;-66
2023/06/08 10:29:08;;;;;;;4.32;4.13;;;;;;;;;;5087453;28;20203;-65
2023/06/08 10:31:36;;;;;;;3.75;3.63;;;;;;;;;;5088370;28;20212;-65
2023/06/08 10:34:08;;;;;;;4.47;4.18;;;;;;;;;;5086563;28;20207;-65
2023/06/08 10:36:39;;;;;;;4.15;3.95;;;;;;;;;;5068051;28;20225;-66
2023/06/08 10:39:10;;;;;;;4.35;4.15;;;;;;;;;;5067940;28;20779;-66
2023/06/08 10:41:40;;;;;;;4.15;3.92;;;;;;;;;;5074329;28;20217;-66
2023/06/08 10:44:23;;;;;;;4.28;4.00;;;;;;;;;;5086816;28;20268;-65
2023/06/08 10:46:56;;;;;;;4.28;4.07;;;;;;;;;;5100216;28;20211;-66
2023/06/08 10:49:23;;;;;;;4.28;4.07;;;;;;;;;;5086664;28;20236;-65
2023/06/08 10:51:56;;;;;;;4.72;4.43;;;;;;;;;;5073338;28;20221;-66
2023/06/08 10:54:23;;;;;;;6.32;4.00;;;;;;;;;;5083991;28;20297;-65
2023/06/08 10:56:52;;;;;;;4.75;4.45;;;;;;;;;;5083325;28;20591;-66
2023/06/08 10:59:23;;;;;;;4.28;4.07;;;;;;;;;;5081832;28;20237;-66
2023/06/08 11:01:50;;;;;;;4.22;3.92;;;;;;;;;;5086589;28;20290;-66
2023/06/08 11:04:18;;;;;;;3.00;2.90;;;;;;;;;;5085304;28;20237;-66
2023/06/08 11:06:45;;;;;;;4.43;4.22;;;;;;;;;;5086464;28;20210;-66
2023/06/08 11:09:14;;;;;;;4.32;4.00;;;;;;;;;;5085746;28;20664;-66
2023/06/08 11:11:50;;;;;;;4.10;3.90;;;;;;;;;;5085048;28;20672;-66
2023/06/08 11:14:20;;;;;;;4.63;3.97;;;;;;;;;;5086135;28;20631;-65
2023/06/08 11:16:49;;;;;;;4.28;4.07;;;;;;;;;;5093389;28;20297;-66
2023/06/08 11:19:18;;;;;;;3.97;3.67;;;;;;;;;;5073226;28;20874;-67
2023/06/08 11:21:45;;;;;;;4.40;4.10;;;;;;;;;;5071790;28;20226;-63
2023/06/08 11:24:16;;;;;;;4.30;4.10;;;;;;;;;;5086875;28;20218;-64
2023/06/08 11:26:43;;;;;;;4.50;4.22;;;;;;;;;;5071375;28;20684;-63
2023/06/08 11:29:10;;;;;;;4.07;3.70;;;;;;;;;;5085826;28;20199;-65
2023/06/08 11:31:40;;;;;;;3.97;3.70;;;;;;;;;;5083589;28;20774;-66
2023/06/08 11:34:07;;;;;;;3.50;3.40;;;;;;;;;;5083728;28;20229;-64
2023/06/08 11:36:35;;;;;;;4.65;4.45;;;;;;;;;;5081645;28;20260;-66
2023/06/08 11:39:03;;;;;;;3.80;3.60;;;;;;;;;;5085816;28;20230;-65
2023/06/08 11:41:32;;;;;;;4.30;4.10;;;;;;;;;;5086296;28;20898;-65
2023/06/08 11:43:59;;;;;;;4.55;4.15;;;;;;;;;;5086374;28;20256;-66
2023/06/08 11:46:27;;;;;;;4.28;4.07;;;;;;;;;;5085286;28;20214;-65
2023/06/08 11:48:54;;;;;;;3.63;3.50;;;;;;;;;;5084093;28;20362;-65
2023/06/08 11:51:25;;;;;;;4.40;4.20;;;;;;;;;;5064653;28;20218;-65
2023/06/08 11:53:52;;;;;;;4.20;4.00;;;;;;;;;;5065641;28;20233;-66
2023/06/08 11:56:20;;;;;;;3.67;3.50;;;;;;;;;;5081618;28;20305;-66
2023/06/08 11:58:48;;;;;;;3.78;3.63;;;;;;;;;;5085583;28;20230;-66
2023/06/08 12:01:16;;;;;;;4.03;3.83;;;;;;;;;;5083833;28;20214;-65
2023/06/08 12:03:44;;;;;;;4.35;4.05;;;;;;;;;;5065984;28;20246;-66
2023/06/08 12:06:12;;;;;;;4.40;4.20;;;;;;;;;;5079891;28;20210;-65
2023/06/08 12:08:41;;;;;;;4.10;3.95;;;;;;;;;;5085014;28;20411;-65
2023/06/08 12:11:09;;;;;;;4.22;4.00;;;;;;;;;;5085916;28;20305;-66
2023/06/08 12:13:36;;;;;;;3.65;3.47;;;;;;;;;;5085180;28;20215;-65
2023/06/08 12:16:06;;;;;;;3.83;3.58;;;;;;;;;;5087754;28;20214;-65
2023/06/08 12:18:38;;;;;;;4.60;4.30;;;;;;;;;;5086732;28;20708;-65
2023/06/08 12:21:05;;;;;;;4.45;4.05;;;;;;;;;;5088730;28;20254;-64
2023/06/08 12:23:32;;;;;;;4.63;3.72;;;;;;;;;;5088738;28;20198;-64
2023/06/08 12:25:59;;;;;;;3.80;3.60;;;;;;;;;;5088159;28;20221;-64
2023/06/08 12:28:26;;;;;;;3.50;3.30;;;;;;;;;;5087318;28;20218;-64
2023/06/08 12:30:54;;;;;;;3.50;3.40;;;;;;;;;;5076993;28;20206;-63
2023/06/08 12:33:24;;;;;;;4.20;3.90;;;;;;;;;;5082235;28;20260;-63
2023/06/08 12:35:53;;;;;;;3.72;3.53;;;;;;;;;;5080791;28;20376;-65
2023/06/08 12:38:20;;;;;;;3.92;3.67;;;;;;;;;;5087448;28;20232;-63
2023/06/08 12:40:48;;;;;;;3.35;3.20;;;;;;;;;;5088944;28;20590;-62
2023/06/08 12:43:15;;;;;;;3.75;3.58;;;;;;;;;;5077324;28;20231;-60
2023/06/08 12:45:42;;;;;;;4.10;3.90;;;;;;;;;;5070118;28;20238;-60
2023/06/08 12:48:09;;;;;;;4.00;3.80;;;;;;;;;;5102478;28;20210;-60
2023/06/08 12:50:39;;;;;;;3.50;3.40;;;;;;;;;;5088964;28;20210;-64
2023/06/08 12:53:06;;;;;;;3.88;3.67;;;;;;;;;;5084888;28;20292;-63
2023/06/08 12:55:33;;;;;;;4.45;4.10;;;;;;;;;;5068701;28;20404;-61
2023/06/08 12:58:00;;;;;;;4.20;3.92;;;;;;;;;;5096449;28;20217;-60
2023/06/08 13:00:27;;;;;;;4.43;4.22;;;;;;;;;;5097064;28;20214;-61
2023/06/08 13:02:56;;;;;;;4.05;3.83;;;;;;;;;;5098076;28;20213;-61
2023/06/08 13:05:25;;;;;;;4.38;3.97;;;;;;;;;;5082276;28;20214;-61
2023/06/08 13:07:53;;;;;;;4.38;4.05;;;;;;;;;;5100926;28;20201;-62
2023/06/08 13:10:22;;;;;;;4.00;3.80;;;;;;;;;;5093729;28;20210;-62
2023/06/08 13:12:49;;;;;;;4.43;4.13;;;;;;;;;;5092459;28;20210;-61
2023/06/08 13:15:16;;;;;;;4.25;4.05;;;;;;;;;;5080527;28;20230;-62
2023/06/08 13:17:44;;;;;;;3.85;3.65;;;;;;;;;;5076163;28;20226;-63
2023/06/08 13:20:11;;;;;;;3.90;3.70;;;;;;;;;;5079054;28;20245;-63
2023/06/08 13:22:38;;;;;;;3.38;3.15;;;;;;;;;;5086666;28;20902;-64
2023/06/08 13:25:07;;;;;;;3.90;3.65;;;;;;;;;;5085619;28;20211;-64
2023/06/08 13:27:34;;;;;;;3.38;3.25;;;;;;;;;;5085860;28;20206;-64
2023/06/08 13:30:01;;;;;;;4.40;4.00;;;;;;;;;;5091681;28;20297;-64
2023/06/08 13:32:29;;;;;;;3.55;3.35;;;;;;;;;;5088060;28;20202;-63
2023/06/08 13:34:56;;;;;;;3.40;3.20;;;;;;;;;;5096171;28;20209;-62
2023/06/08 13:37:23;;;;;;;4.10;3.63;;;;;;;;;;5108439;28;20205;-64
2023/06/08 13:39:50;;;;;;;4.90;3.65;;;;;;;;;;5094582;28;20249;-64
2023/06/08 13:42:19;;;;;;;3.63;3.42;;;;;;;;;;5107962;28;20244;-64
2023/06/08 13:44:47;;;;;;;3.83;3.63;;;;;;;;;;5081104;28;20221;-65
2023/06/08 13:47:14;;;;;;;4.72;3.78;;;;;;;;;;5108114;28;20398;-64
2023/06/08 13:49:42;;;;;;;3.90;3.70;;;;;;;;;;5093568;28;20207;-63
2023/06/08 13:52:09;;;;;;;3.53;3.40;;;;;;;;;;5088955;28;20272;-64
2023/06/08 13:54:37;;;;;;;3.67;3.47;;;;;;;;;;5082981;28;20564;-64
2023/06/08 13:57:05;;;;;;;3.72;3.53;;;;;;;;;;5081393;28;20206;-64
2023/06/08 13:59:34;;;;;;;4.45;4.18;;;;;;;;;;5079662;28;20238;-64
2023/06/08 14:02:01;;;;;;;3.83;3.63;;;;;;;;;;5082799;28;20670;-64
2023/06/08 14:04:28;;;;;;;4.10;3.78;;;;;;;;;;5074198;28;20491;-62
2023/06/08 14:06:55;;;;;;;3.17;2.97;;;;;;;;;;5067379;28;20599;-63
2023/06/08 14:09:23;;;;;;;3.10;2.90;;;;;;;;;;5080257;28;20230;-62
2023/06/08 14:11:50;;;;;;;3.60;3.40;;;;;;;;;;5065516;28;20203;-62
2023/06/08 14:14:17;;;;;;;3.55;3.35;;;;;;;;;;5101063;28;20216;-62
2023/06/08 14:16:47;;;;;;;3.28;3.17;;;;;;;;;;5091125;28;20206;-62
2023/06/08 14:19:14;;;;;;;3.97;3.78;;;;;;;;;;5086371;28;20229;-63
2023/06/08 14:21:41;;;;;;;3.50;3.28;;;;;;;;;;5088030;28;20230;-62
2023/06/08 14:24:08;;;;;;;3.83;3.72;;;;;;;;;;5088059;28;20198;-62
2023/06/08 14:26:36;;;;;;;3.35;3.20;;;;;;;;;;5087918;28;20214;-63
2023/06/08 14:29:03;;;;;;;3.55;3.45;;;;;;;;;;5080252;28;20205;-63
2023/06/08 14:31:30;;;;;;;3.58;3.38;;;;;;;;;;5079463;28;20234;-63
2023/06/08 14:33:58;;;;;;;2.85;2.72;;;;;;;;;;5070937;28;20210;-62
2023/06/08 14:36:25;;;;;;;3.50;3.20;;;;;;;;;;5090467;28;20206;-62
2023/06/08 14:38:53;;;;;;;3.10;2.95;;;;;;;;;;5087003;28;20226;-63
2023/06/08 14:41:20;;;;;;;3.15;3.05;;;;;;;;;;5101522;28;20205;-62
2023/06/08 14:43:50;;;;;;;3.30;3.20;;;;;;;;;;5107085;28;20321;-63
2023/06/08 14:46:17;;;;;;;3.10;2.90;;;;;;;;;;5093621;28;20654;-63
2023/06/08 14:48:44;;;;;;;3.58;3.28;;;;;;;;;;5086340;28;20221;-63